Time;durP1;ratioP1;P1;durP2;ratioP2;P2;SDS_P1;SDS_P2;PMS_P1;PMS_P2;Temp;Humidity;BMP_temperature;BMP_pressure;BME280_temperature;BME280_humidity;BME280_pressure;Samples;Min_cycle;Max_cycle;Signal;HPM_P1;HPM_P2
2022/12/04 00:00:06;;;;;;;20.73;15.07;;;;;;;0.94;100.00;99997.78;5011827;28;20772;-66
2022/12/04 00:02:32;;;;;;;20.97;14.60;;;;;;;0.89;100.00;100007.16;4957199;28;20242;-65
2022/12/04 00:04:57;;;;;;;20.60;14.83;;;;;;;0.85;100.00;99998.78;5012194;28;20201;-66
2022/12/04 00:07:23;;;;;;;22.40;14.80;;;;;;;0.87;100.00;99996.22;5012228;28;20191;-65
2022/12/04 00:09:48;;;;;;;22.37;14.90;;;;;;;0.94;100.00;99998.63;5010409;28;20230;-64
2022/12/04 00:12:13;;;;;;;21.93;15.90;;;;;;;1.04;100.00;100001.84;4998863;28;20234;-66
2022/12/04 00:14:39;;;;;;;23.27;13.87;;;;;;;0.95;100.00;100004.53;5004193;28;20171;-65
2022/12/04 00:17:04;;;;;;;22.20;15.40;;;;;;;1.01;100.00;100003.59;5017256;28;20313;-66
2022/12/04 00:19:29;;;;;;;24.93;16.07;;;;;;;1.00;100.00;100010.34;5012991;28;20237;-66
2022/12/04 00:21:55;;;;;;;22.93;15.33;;;;;;;1.01;100.00;100004.44;5016145;28;20308;-66
2022/12/04 00:24:20;;;;;;;21.80;15.47;;;;;;;1.14;100.00;100010.09;5014060;28;20560;-63
2022/12/04 00:26:45;;;;;;;23.87;15.67;;;;;;;1.06;100.00;100010.25;5018137;28;20642;-66
2022/12/04 00:29:12;;;;;;;23.10;16.27;;;;;;;1.05;100.00;100008.56;5012334;28;20195;-67
2022/12/04 00:31:38;;;;;;;22.60;15.93;;;;;;;1.12;100.00;100012.69;4980831;28;20272;-66
2022/12/04 00:34:04;;;;;;;23.60;15.93;;;;;;;1.08;100.00;100017.81;5012925;28;20573;-66
2022/12/04 00:36:29;;;;;;;20.73;14.60;;;;;;;0.99;100.00;100016.28;5011994;28;20210;-65
2022/12/04 00:38:57;;;;;;;22.13;15.27;;;;;;;0.96;100.00;100016.34;5012296;28;20175;-64
2022/12/04 00:41:24;;;;;;;20.37;14.37;;;;;;;0.99;100.00;100015.44;5010351;28;20231;-65
2022/12/04 00:43:49;;;;;;;21.27;15.17;;;;;;;1.01;100.00;100012.03;5017200;28;20248;-65
2022/12/04 00:46:15;;;;;;;21.67;15.47;;;;;;;1.03;100.00;100022.13;5012086;28;20187;-65
2022/12/04 00:48:42;;;;;;;22.97;14.97;;;;;;;1.09;100.00;100011.88;5005840;28;20167;-65
2022/12/04 00:51:10;;;;;;;19.50;14.60;;;;;;;1.03;100.00;100010.31;5003862;28;20241;-65
2022/12/04 00:53:36;;;;;;;18.53;13.80;;;;;;;1.00;100.00;100012.88;5010566;28;20186;-64
2022/12/04 00:56:07;;;;;;;18.97;14.97;;;;;;;0.99;100.00;100001.06;4997787;28;20175;-64
2022/12/04 00:58:32;;;;;;;16.77;13.03;;;;;;;0.90;100.00;100006.31;5006528;28;20270;-64
2022/12/04 01:01:10;;;;;;;20.77;13.97;;;;;;;0.92;100.00;100013.00;4992424;28;20732;-64
2022/12/04 01:03:35;;;;;;;18.80;13.60;;;;;;;0.94;100.00;100010.44;5023291;28;21018;-64
2022/12/04 01:06:01;;;;;;;21.83;15.27;;;;;;;0.92;100.00;100005.41;5012076;28;20250;-63
2022/12/04 01:08:27;;;;;;;22.43;15.23;;;;;;;0.87;100.00;99999.59;5010155;28;20226;-65
2022/12/04 01:10:52;;;;;;;19.10;14.60;;;;;;;0.87;100.00;100006.34;5007955;28;20241;-64
2022/12/04 01:13:18;;;;;;;20.13;14.30;;;;;;;0.81;100.00;100007.28;5019563;28;20186;-64
2022/12/04 01:15:43;;;;;;;21.87;15.10;;;;;;;0.82;100.00;100000.50;5009208;28;20593;-64
2022/12/04 01:18:10;;;;;;;24.90;15.27;;;;;;;0.85;100.00;99996.25;4999728;28;20201;-64
2022/12/04 01:20:36;;;;;;;23.73;15.17;;;;;;;0.83;100.00;99997.94;5002707;28;20280;-65
2022/12/04 01:23:02;;;;;;;19.20;14.73;;;;;;;0.83;100.00;99992.06;4990666;28;20600;-65
2022/12/04 01:25:27;;;;;;;20.53;14.63;;;;;;;0.84;100.00;99991.22;5009305;28;20221;-64
2022/12/04 01:27:52;;;;;;;23.30;14.43;;;;;;;0.82;100.00;99985.31;5011717;28;20190;-64
2022/12/04 01:30:18;;;;;;;22.03;15.57;;;;;;;0.77;100.00;99977.78;5003094;28;20190;-64
2022/12/04 01:32:43;;;;;;;21.63;15.30;;;;;;;0.79;100.00;99981.16;5025079;28;20540;-64
2022/12/04 01:35:08;;;;;;;21.50;14.63;;;;;;;0.78;100.00;99979.47;5011434;28;20201;-64
2022/12/04 01:37:34;;;;;;;19.73;13.83;;;;;;;0.81;100.00;99971.84;5011348;28;20174;-65
2022/12/04 01:39:59;;;;;;;19.70;15.03;;;;;;;0.73;100.00;99969.44;5011388;28;20714;-64
2022/12/04 01:42:25;;;;;;;20.87;14.57;;;;;;;0.74;100.00;99960.94;5016575;28;20226;-65
2022/12/04 01:45:35;;;;;;;22.27;16.00;;;;;;;0.69;100.00;99961.91;5011545;28;20183;-65
2022/12/04 01:48:26;;;;;;;22.40;15.50;;;;;;;0.69;100.00;99965.25;5011038;28;20205;-65
2022/12/04 01:50:57;;;;;;;20.30;14.53;;;;;;;0.74;100.00;99971.09;5002949;28;20320;-65
2022/12/04 01:53:23;;;;;;;22.17;15.17;;;;;;;0.79;100.00;99978.63;5011349;28;20278;-65
2022/12/04 01:55:49;;;;;;;22.23;13.83;;;;;;;0.77;100.00;99988.78;5000809;28;20186;-65
2022/12/04 01:58:20;;;;;;;22.07;14.93;;;;;;;0.72;100.00;99992.22;5027381;28;20186;-65
2022/12/04 02:00:51;;;;;;;20.87;15.87;;;;;;;0.83;100.00;100000.47;5022984;28;20299;-65
2022/12/04 02:03:16;;;;;;;21.63;15.87;;;;;;;0.79;100.00;100006.47;5023253;28;20213;-65
2022/12/04 02:05:42;;;;;;;23.17;15.47;;;;;;;0.89;100.00;99997.03;5015259;28;20179;-65
2022/12/04 02:08:07;;;;;;;23.73;15.57;;;;;;;0.98;100.00;100006.16;5013297;28;20215;-66
2022/12/04 02:11:07;;;;;;;21.13;13.97;;;;;;;0.90;100.00;100013.91;5008473;28;20303;-65
2022/12/04 02:13:54;;;;;;;22.83;15.23;;;;;;;0.83;100.00;100008.06;5030186;28;20202;-65
2022/12/04 02:16:42;;;;;;;21.87;14.33;;;;;;;0.89;100.00;100007.16;5010359;28;20201;-65
2022/12/04 02:19:10;;;;;;;19.23;13.83;;;;;;;0.79;100.00;100003.94;5004355;28;20182;-65
2022/12/04 02:21:39;;;;;;;22.00;15.07;;;;;;;0.75;100.00;99999.78;5015949;28;20660;-65
2022/12/04 02:24:10;;;;;;;23.27;15.03;;;;;;;0.76;100.00;100004.00;5013841;28;20575;-64
2022/12/04 02:26:45;;;;;;;19.10;14.60;;;;;;;0.99;100.00;100002.78;5014168;28;20174;-65
2022/12/04 02:29:37;;;;;;;22.90;15.37;;;;;;;0.95;100.00;100002.81;5028890;28;20675;-65
2022/12/04 02:32:14;;;;;;;20.10;14.77;;;;;;;0.91;100.00;99995.31;5013781;28;20665;-65
2022/12/04 02:34:54;;;;;;;21.43;15.17;;;;;;;0.94;100.00;99995.25;5014733;28;20262;-65
2022/12/04 02:37:34;;;;;;;22.20;15.73;;;;;;;1.04;100.00;99999.31;5014651;28;20195;-65
2022/12/04 02:40:16;;;;;;;22.37;15.30;;;;;;;0.90;100.00;99996.16;5002291;28;20171;-64
2022/12/04 02:42:45;;;;;;;20.17;13.73;;;;;;;0.85;100.00;100005.53;5003101;28;20239;-64
2022/12/04 02:45:19;;;;;;;20.33;15.23;;;;;;;0.88;100.00;100002.94;5029506;28;20197;-65
2022/12/04 02:47:45;;;;;;;18.43;13.40;;;;;;;0.85;100.00;100003.84;5029096;28;20714;-65
2022/12/04 02:50:20;;;;;;;21.10;14.27;;;;;;;0.80;100.00;99998.84;5005079;28;20187;-65
2022/12/04 02:52:54;;;;;;;19.73;14.23;;;;;;;0.86;100.00;99992.03;5026903;28;20202;-65
2022/12/04 02:55:28;;;;;;;21.13;14.57;;;;;;;0.81;100.00;99994.63;5012931;28;20194;-64
2022/12/04 02:58:01;;;;;;;20.93;12.90;;;;;;;0.81;100.00;99989.56;5012985;28;20266;-64
2022/12/04 03:00:29;;;;;;;22.33;15.93;;;;;;;0.86;100.00;99986.97;5004003;28;20333;-65
2022/12/04 03:03:03;;;;;;;19.50;14.47;;;;;;;0.86;100.00;99985.25;5019624;28;20199;-64
2022/12/04 03:05:46;;;;;;;22.37;14.50;;;;;;;0.82;100.00;99991.25;5028329;28;20180;-64
2022/12/04 03:08:16;;;;;;;20.13;13.40;;;;;;;0.78;100.00;99982.00;5012241;28;20229;-65
2022/12/04 03:10:48;;;;;;;20.63;13.83;;;;;;;0.78;100.00;99984.53;5021660;28;20238;-65
2022/12/04 03:13:34;;;;;;;21.10;14.40;;;;;;;0.84;100.00;99989.50;5012612;28;20708;-65
2022/12/04 03:16:21;;;;;;;21.20;14.97;;;;;;;0.78;100.00;99982.00;5028894;28;20637;-64
2022/12/04 03:18:53;;;;;;;19.97;13.43;;;;;;;0.71;100.00;99986.34;5029177;28;20538;-64
2022/12/04 03:21:23;;;;;;;22.70;15.53;;;;;;;0.74;100.00;99988.81;5013155;28;20296;-64
2022/12/04 03:23:55;;;;;;;20.57;15.07;;;;;;;0.76;100.00;99988.81;5028691;28;20272;-64
2022/12/04 03:26:23;;;;;;;18.83;14.27;;;;;;;0.69;100.00;99982.97;5013131;28;20194;-65
2022/12/04 03:28:59;;;;;;;18.77;14.73;;;;;;;0.70;100.00;99971.19;5012463;28;20190;-64
2022/12/04 03:31:49;;;;;;;21.90;15.10;;;;;;;0.75;100.00;99975.28;5014295;28;20328;-65
2022/12/04 03:34:25;;;;;;;20.87;14.70;;;;;;;0.82;100.00;99972.66;5012246;28;20547;-66
2022/12/04 03:37:02;;;;;;;20.60;14.70;;;;;;;0.77;100.00;99971.06;5028355;28;20210;-65
2022/12/04 03:39:41;;;;;;;15.67;12.83;;;;;;;0.73;100.00;99968.59;5027961;28;20210;-65
2022/12/04 03:42:24;;;;;;;21.80;15.13;;;;;;;0.69;100.00;99966.97;5020631;28;20803;-65
2022/12/04 03:45:01;;;;;;;18.83;12.47;;;;;;;0.68;100.00;99976.25;5000706;28;20205;-65
2022/12/04 03:47:50;;;;;;;19.83;13.63;;;;;;;0.73;100.00;99966.06;5011564;28;20183;-65
2022/12/04 03:50:34;;;;;;;18.53;14.60;;;;;;;0.74;100.00;99965.19;5003861;28;20194;-65
2022/12/04 03:53:07;;;;;;;17.57;13.53;;;;;;;0.70;100.00;99961.88;5019647;28;20183;-65
2022/12/04 03:55:47;;;;;;;17.83;13.33;;;;;;;0.72;100.00;99957.63;5011968;28;20206;-65
2022/12/04 03:58:18;;;;;;;20.40;13.77;;;;;;;0.76;100.00;99964.31;5011538;28;20186;-65
2022/12/04 04:00:46;;;;;;;20.50;13.80;;;;;;;0.69;100.00;99964.44;5010010;28;20251;-65
2022/12/04 04:03:18;;;;;;;20.37;12.60;;;;;;;0.76;100.00;99963.47;5012011;28;20237;-65
2022/12/04 04:05:47;;;;;;;18.67;13.57;;;;;;;0.71;100.00;99963.56;5028253;28;20171;-65
2022/12/04 04:08:28;;;;;;;18.83;13.60;;;;;;;0.71;100.00;99968.63;5027048;28;20209;-65
2022/12/04 04:11:28;;;;;;;16.27;12.60;;;;;;;0.70;100.00;99961.88;5009247;28;20289;-65
2022/12/04 04:25:20;;;;;;;17.27;13.10;;;;;;;0.69;100.00;99975.38;4933569;29;20280;-65
2022/12/04 04:27:53;;;;;;;19.03;13.90;;;;;;;0.84;100.00;99969.25;4916310;29;20276;-66
2022/12/04 04:30:19;;;;;;;17.73;13.17;;;;;;;0.79;100.00;99971.00;4887690;28;20248;-64
2022/12/04 04:32:55;;;;;;;19.37;14.33;;;;;;;0.74;100.00;99968.56;4916394;29;20668;-64
2022/12/04 04:35:31;;;;;;;18.70;13.60;;;;;;;0.75;100.00;99966.88;4933022;29;20196;-64
2022/12/04 04:38:08;;;;;;;18.80;12.30;;;;;;;0.71;100.00;99963.56;4916266;29;20248;-66
2022/12/04 04:41:15;;;;;;;19.37;14.30;;;;;;;0.83;100.00;99959.97;4923128;29;20268;-65
2022/12/04 04:43:50;;;;;;;20.77;14.00;;;;;;;0.77;100.00;99962.59;4932456;29;20304;-65
2022/12/04 04:46:31;;;;;;;18.70;13.27;;;;;;;0.72;100.00;99969.44;4932564;29;20340;-65
2022/12/04 04:49:00;;;;;;;20.13;14.07;;;;;;;0.75;100.00;99970.22;4931807;29;20186;-64
2022/12/04 04:51:28;;;;;;;18.93;14.47;;;;;;;0.72;100.00;99970.28;4980440;28;20222;-64
2022/12/04 04:53:57;;;;;;;18.07;13.87;;;;;;;0.78;100.00;99966.81;5008024;28;20190;-64
2022/12/04 04:56:23;;;;;;;17.93;12.80;;;;;;;0.80;100.00;99963.38;5001942;28;20235;-65
2022/12/04 04:58:49;;;;;;;15.73;12.83;;;;;;;0.79;100.00;99963.41;5010623;28;20187;-65
2022/12/04 05:01:21;;;;;;;17.20;13.93;;;;;;;0.85;100.00;99970.09;5010777;28;20221;-64
2022/12/04 05:03:46;;;;;;;17.87;13.67;;;;;;;0.87;100.00;99964.13;5026900;28;20202;-64
2022/12/04 05:06:12;;;;;;;16.67;12.40;;;;;;;0.75;100.00;99959.28;5011813;28;20179;-65
2022/12/04 05:08:38;;;;;;;20.03;14.17;;;;;;;0.74;100.00;99957.59;5010022;28;20225;-65
2022/12/04 05:11:04;;;;;;;17.47;13.43;;;;;;;0.77;100.00;99963.44;5008854;28;20321;-65
2022/12/04 05:13:31;;;;;;;17.30;12.87;;;;;;;0.79;100.00;99954.16;5026932;28;20270;-65
2022/12/04 05:16:03;;;;;;;18.37;12.53;;;;;;;0.78;100.00;99962.59;5011932;28;20179;-65
2022/12/04 05:18:35;;;;;;;19.17;13.73;;;;;;;0.74;100.00;99950.81;5020480;28;20175;-66
2022/12/04 05:21:16;;;;;;;18.30;13.80;;;;;;;0.82;100.00;99953.25;5000687;28;20230;-65
2022/12/04 05:23:42;;;;;;;18.47;13.50;;;;;;;0.79;100.00;99951.63;5011470;28;20218;-65
2022/12/04 05:26:07;;;;;;;17.13;13.07;;;;;;;0.81;100.00;99949.03;5011584;28;20191;-65
2022/12/04 05:28:32;;;;;;;18.03;14.07;;;;;;;0.79;100.00;99946.56;5009264;28;20218;-65
2022/12/04 05:31:00;;;;;;;16.60;12.90;;;;;;;0.78;100.00;99954.16;5007496;28;20574;-64
2022/12/04 05:33:26;;;;;;;19.27;13.47;;;;;;;0.82;100.00;99950.72;5026564;28;20293;-65
2022/12/04 05:35:57;;;;;;;16.27;11.63;;;;;;;0.73;100.00;99963.53;5013462;28;20236;-64
2022/12/04 05:38:23;;;;;;;16.90;12.10;;;;;;;0.70;100.00;99964.41;5026313;28;20190;-65
2022/12/04 05:40:48;;;;;;;17.77;12.77;;;;;;;0.74;100.00;99966.00;5004809;28;20352;-64
2022/12/04 05:43:14;;;;;;;16.83;12.17;;;;;;;0.81;100.00;99969.31;5009749;28;20194;-65
2022/12/04 05:45:39;;;;;;;16.37;12.63;;;;;;;0.75;100.00;99967.69;5010379;28;20187;-65
2022/12/04 05:48:05;;;;;;;16.33;12.97;;;;;;;0.72;100.00;99979.56;5012465;28;20197;-65
2022/12/04 05:50:30;;;;;;;17.27;12.73;;;;;;;0.75;100.00;99974.47;5004652;28;20237;-65
2022/12/04 05:52:55;;;;;;;17.50;12.97;;;;;;;0.87;100.00;99981.88;5022818;28;20175;-65
2022/12/04 05:55:20;;;;;;;18.03;13.57;;;;;;;0.94;100.00;99982.59;5009618;28;20189;-66
2022/12/04 05:57:46;;;;;;;17.60;13.40;;;;;;;0.82;100.00;99982.78;5010975;28;20697;-65
2022/12/04 06:00:12;;;;;;;20.30;14.17;;;;;;;0.82;100.00;99972.66;5000290;28;20171;-65
2022/12/04 06:02:37;;;;;;;16.90;12.63;;;;;;;0.77;100.00;99971.06;5026625;28;20658;-66
2022/12/04 06:05:03;;;;;;;17.33;12.60;;;;;;;0.79;100.00;99978.63;5010881;28;20214;-65
2022/12/04 06:07:28;;;;;;;17.83;13.30;;;;;;;0.81;100.00;99974.38;5011102;28;20182;-66
2022/12/04 06:09:54;;;;;;;20.70;14.00;;;;;;;0.85;100.00;99972.63;5025575;28;20314;-65
2022/12/04 06:12:19;;;;;;;18.20;13.30;;;;;;;0.78;100.00;99975.25;5016266;28;20759;-66
2022/12/04 06:14:44;;;;;;;17.00;12.53;;;;;;;0.79;100.00;99979.47;5010986;28;20179;-66
2022/12/04 06:17:10;;;;;;;17.07;12.57;;;;;;;0.77;100.00;99980.31;5010804;28;20191;-65
2022/12/04 06:19:35;;;;;;;17.60;13.23;;;;;;;0.74;100.00;99975.31;5011118;28;20202;-66
2022/12/04 06:22:00;;;;;;;17.67;13.03;;;;;;;0.79;100.00;99986.22;5015857;28;20218;-66
2022/12/04 06:24:26;;;;;;;16.80;12.80;;;;;;;0.84;100.00;99978.53;5011432;28;20240;-66
2022/12/04 06:26:55;;;;;;;17.03;12.90;;;;;;;0.78;100.00;99982.00;5010352;28;20186;-65
2022/12/04 06:29:20;;;;;;;19.03;13.70;;;;;;;0.83;100.00;99977.69;5010799;28;20183;-66
2022/12/04 06:31:46;;;;;;;22.17;13.60;;;;;;;0.86;100.00;99982.72;5013743;28;20226;-66
2022/12/04 06:34:11;;;;;;;17.57;13.67;;;;;;;0.88;100.00;99980.16;5013471;28;20182;-65
2022/12/04 06:36:37;;;;;;;19.50;14.40;;;;;;;0.90;100.00;99983.50;5011064;28;20961;-65
2022/12/04 06:39:03;;;;;;;19.03;13.37;;;;;;;0.90;100.00;99981.81;5026317;28;20595;-66
2022/12/04 06:41:29;;;;;;;17.53;12.40;;;;;;;0.92;100.00;99986.88;5020639;28;20222;-66
2022/12/04 06:43:55;;;;;;;18.53;14.00;;;;;;;0.97;100.00;99977.50;5015310;28;20730;-66
2022/12/04 06:46:23;;;;;;;18.37;12.33;;;;;;;0.86;100.00;99977.66;5029437;28;20305;-65
2022/12/04 06:48:49;;;;;;;17.10;12.87;;;;;;;0.88;100.00;99982.69;5029275;28;20201;-66
2022/12/04 06:51:23;;;;;;;17.17;12.67;;;;;;;1.10;100.00;99973.88;5012981;28;20603;-66
2022/12/04 06:53:49;;;;;;;17.37;13.13;;;;;;;1.01;100.00;99975.75;5015329;28;20250;-65
2022/12/04 06:56:17;;;;;;;16.53;13.17;;;;;;;1.05;100.00;99972.28;5003130;28;20187;-64
2022/12/04 06:58:44;;;;;;;18.57;13.77;;;;;;;1.02;100.00;99977.38;5012768;28;20248;-65
2022/12/04 07:01:12;;;;;;;18.97;13.77;;;;;;;0.93;100.00;99975.84;5021786;28;20647;-65
2022/12/04 07:03:38;;;;;;;15.97;11.73;;;;;;;0.86;100.00;99965.00;5016624;28;20298;-65
2022/12/04 07:06:20;;;;;;;16.13;11.87;;;;;;;1.01;100.00;99968.13;5029613;28;20182;-65
2022/12/04 07:08:48;;;;;;;17.20;12.50;;;;;;;1.15;100.00;99971.25;5012352;28;20213;-65
2022/12/04 07:11:14;;;;;;;17.90;12.73;;;;;;;1.07;100.00;99979.00;5012412;28;20277;-64
2022/12/04 07:13:40;;;;;;;16.23;12.60;;;;;;;1.00;100.00;99974.06;5020190;28;20185;-64
2022/12/04 07:16:09;;;;;;;16.33;12.63;;;;;;;1.24;100.00;99973.63;5029165;28;20188;-65
2022/12/04 07:18:35;;;;;;;20.50;13.37;;;;;;;1.14;100.00;99967.03;5027989;28;20262;-65
2022/12/04 07:21:06;;;;;;;16.93;12.93;;;;;;;1.08;100.00;99973.06;5021139;28;20325;-64
2022/12/04 07:23:31;;;;;;;19.47;13.57;;;;;;;1.04;100.00;99974.00;5012215;28;20243;-65
2022/12/04 07:25:57;;;;;;;17.30;12.07;;;;;;;0.99;100.00;99964.78;5013816;28;20187;-64
2022/12/04 07:28:22;;;;;;;15.70;12.13;;;;;;;0.89;100.00;99961.56;5013746;28;20179;-65
2022/12/04 07:30:47;;;;;;;18.17;13.10;;;;;;;0.87;100.00;99961.59;5009406;28;20255;-65
2022/12/04 07:33:13;;;;;;;17.43;12.00;;;;;;;0.88;100.00;99960.75;5023178;28;20284;-65
2022/12/04 07:35:38;;;;;;;17.17;12.10;;;;;;;0.86;100.00;99959.94;5013247;28;20217;-65
2022/12/04 07:38:03;;;;;;;18.07;13.50;;;;;;;0.92;100.00;99956.47;5000870;28;20201;-66
2022/12/04 07:40:29;;;;;;;16.50;12.17;;;;;;;0.95;100.00;99966.53;5006691;28;20282;-65
2022/12/04 07:42:54;;;;;;;17.23;12.10;;;;;;;0.92;100.00;99966.59;5015176;28;20223;-65
2022/12/04 07:45:20;;;;;;;15.73;11.83;;;;;;;0.93;100.00;99965.72;5013040;28;20195;-65
2022/12/04 07:47:45;;;;;;;15.93;11.40;;;;;;;0.88;100.00;99965.81;5016607;28;20678;-66
2022/12/04 07:50:12;;;;;;;13.97;10.70;;;;;;;0.96;100.00;99956.38;4998164;28;20544;-67
2022/12/04 07:52:38;;;;;;;13.83;10.77;;;;;;;0.99;100.00;99960.53;4993292;28;20650;-66
2022/12/04 07:55:05;;;;;;;16.80;11.43;;;;;;;1.13;100.00;99967.94;5026136;28;20177;-66
2022/12/04 07:57:31;;;;;;;16.27;11.20;;;;;;;1.19;100.00;99974.56;5012258;28;20622;-66
2022/12/04 07:59:57;;;;;;;16.37;11.67;;;;;;;1.11;100.00;99973.00;5011964;28;20185;-65
2022/12/04 08:02:22;;;;;;;13.90;10.63;;;;;;;1.05;100.00;99975.63;5006799;28;20317;-64
2022/12/04 08:04:48;;;;;;;17.00;11.77;;;;;;;1.10;100.00;99980.63;5008200;28;20585;-65
2022/12/04 08:07:13;;;;;;;18.17;12.27;;;;;;;1.08;100.00;99980.66;5011073;28;20265;-64
2022/12/04 08:09:39;;;;;;;16.67;12.30;;;;;;;1.05;100.00;99983.22;5007239;28;20212;-66
2022/12/04 08:12:04;;;;;;;15.93;11.87;;;;;;;1.12;100.00;99984.81;5019441;28;20230;-65
2022/12/04 08:14:29;;;;;;;13.17;10.23;;;;;;;1.09;100.00;99989.94;5013502;28;20330;-64
2022/12/04 08:16:55;;;;;;;14.77;10.47;;;;;;;1.06;100.00;99991.69;5016478;28;20247;-65
2022/12/04 08:19:21;;;;;;;14.90;11.23;;;;;;;0.92;100.00;99994.47;5012037;28;20186;-64
2022/12/04 08:21:46;;;;;;;15.43;10.93;;;;;;;0.91;100.00;99992.78;5016433;28;20233;-64
2022/12/04 08:24:11;;;;;;;15.37;11.77;;;;;;;0.94;100.00;99992.72;5014649;28;20199;-65
2022/12/04 08:26:37;;;;;;;16.60;11.03;;;;;;;1.03;100.00;99991.72;5010526;28;20187;-64
2022/12/04 08:29:03;;;;;;;16.63;12.43;;;;;;;1.01;100.00;99993.47;5013401;28;20737;-64
2022/12/04 08:31:31;;;;;;;17.17;11.90;;;;;;;1.10;100.00;99988.22;4998709;28;20217;-64
2022/12/04 08:33:58;;;;;;;13.70;10.73;;;;;;;1.02;100.00;99983.31;5011284;28;20178;-63
2022/12/04 08:36:24;;;;;;;13.43;11.07;;;;;;;1.02;100.00;99982.44;5010505;28;20550;-65
2022/12/04 08:38:49;;;;;;;18.10;12.30;;;;;;;1.17;100.00;99976.31;5025210;28;20188;-64
2022/12/04 08:41:17;;;;;;;16.07;11.23;;;;;;;1.22;100.00;99969.47;5016955;28;20231;-64
2022/12/04 08:43:43;;;;;;;16.67;11.47;;;;;;;1.38;100.00;99978.44;5004774;28;20211;-64
2022/12/04 08:46:12;;;;;;;18.73;12.13;;;;;;;1.29;100.00;99979.44;5012616;28;20183;-66
2022/12/04 08:48:38;;;;;;;15.80;11.50;;;;;;;1.17;100.00;99968.72;5026046;28;20661;-64
2022/12/04 08:51:04;;;;;;;19.63;11.27;;;;;;;1.15;100.00;99971.25;5003585;28;20344;-64
2022/12/04 08:53:30;;;;;;;14.53;11.30;;;;;;;1.15;100.00;99962.81;5010911;28;20185;-64
2022/12/04 08:55:55;;;;;;;16.10;10.67;;;;;;;1.17;100.00;99973.78;4999056;28;20187;-64
2022/12/04 08:58:21;;;;;;;16.17;11.73;;;;;;;1.14;100.00;99969.56;5012087;28;20201;-64
2022/12/04 09:00:47;;;;;;;17.20;11.03;;;;;;;1.17;100.00;99969.53;5020127;28;20685;-64
2022/12/04 09:03:17;;;;;;;15.00;10.73;;;;;;;1.18;100.00;99977.94;5021725;28;20537;-64
2022/12/04 09:05:46;;;;;;;14.03;10.80;;;;;;;1.16;100.00;99967.84;5011999;28;20175;-63
2022/12/04 09:08:15;;;;;;;23.60;16.03;;;;;;;1.22;100.00;99969.47;5010150;28;20600;-64
2022/12/04 09:10:41;;;;;;;17.10;11.30;;;;;;;1.17;100.00;99969.53;5003277;28;20237;-63
2022/12/04 09:13:07;;;;;;;16.40;11.43;;;;;;;1.21;100.00;99972.84;5022168;28;20306;-64
2022/12/04 09:15:33;;;;;;;13.13;10.97;;;;;;;1.15;100.00;99956.03;5026859;28;20282;-64
2022/12/04 09:17:59;;;;;;;16.37;11.37;;;;;;;1.26;100.00;99959.22;5026398;28;20179;-65
2022/12/04 09:20:24;;;;;;;14.63;11.27;;;;;;;1.32;100.00;99960.81;5004058;28;20226;-62
2022/12/04 09:22:49;;;;;;;14.67;10.73;;;;;;;1.22;100.00;99969.47;5024316;28;20212;-64
2022/12/04 09:25:15;;;;;;;14.53;11.57;;;;;;;1.25;100.00;99977.00;5010915;28;20178;-63
2022/12/04 09:27:40;;;;;;;14.20;11.07;;;;;;;1.32;100.00;99973.47;5011311;28;20257;-64
2022/12/04 09:30:10;;;;;;;15.33;11.20;;;;;;;1.39;100.00;99975.03;5001908;28;20604;-64
2022/12/04 09:32:35;;;;;;;13.83;10.30;;;;;;;1.25;100.00;99985.44;5025761;28;20658;-64
2022/12/04 09:35:01;;;;;;;12.93;10.27;;;;;;;1.26;100.00;99976.13;5011523;28;20194;-63
2022/12/04 09:37:26;;;;;;;16.53;11.50;;;;;;;1.26;100.00;99979.50;5008672;28;20179;-64
2022/12/04 09:39:51;;;;;;;13.20;10.03;;;;;;;1.33;100.00;99984.44;5011795;28;20176;-63
2022/12/04 09:42:32;;;;;;;14.67;11.77;;;;;;;1.32;100.00;99967.59;5014669;28;20262;-64
2022/12/04 09:45:14;;;;;;;15.97;10.70;;;;;;;1.34;100.00;99964.16;5000335;28;20654;-64
2022/12/04 09:47:44;;;;;;;15.43;11.03;;;;;;;1.31;100.00;99950.72;5014028;28;20258;-64
2022/12/04 09:50:12;;;;;;;15.43;11.00;;;;;;;1.29;100.00;99950.75;4989523;28;20189;-63
2022/12/04 09:52:43;;;;;;;13.83;9.60;;;;;;;1.36;100.00;99969.19;5018769;28;20241;-65
2022/12/04 09:55:21;;;;;;;13.93;10.30;;;;;;;1.39;100.00;99962.38;5006056;28;20210;-64
2022/12/04 09:57:49;;;;;;;15.70;11.83;;;;;;;1.45;100.00;99958.88;4997172;28;20174;-64
2022/12/04 10:00:17;;;;;;;17.83;11.40;;;;;;;1.42;100.00;99961.47;5005823;28;20269;-63
2022/12/04 10:03:05;;;;;;;15.27;10.93;;;;;;;1.36;100.00;99946.38;5006086;28;20226;-64
2022/12/04 10:05:48;;;;;;;15.77;11.20;;;;;;;1.39;100.00;99948.84;5013476;28;20203;-64
2022/12/04 10:08:22;;;;;;;14.90;10.90;;;;;;;1.49;100.00;99957.97;5009790;28;20214;-64
2022/12/04 10:11:15;;;;;;;14.00;10.63;;;;;;;1.57;100.00;99957.81;5006922;28;20231;-64
2022/12/04 10:13:49;;;;;;;15.53;11.73;;;;;;;1.49;100.00;99957.13;5017564;28;20231;-64
2022/12/04 10:16:53;;;;;;;16.07;10.87;;;;;;;1.68;100.00;99950.81;5015068;28;20638;-65
2022/12/04 10:19:27;;;;;;;17.00;10.70;;;;;;;1.63;100.00;99952.63;5013678;28;20188;-66
2022/12/04 10:21:58;;;;;;;15.30;11.50;;;;;;;1.76;100.00;99958.25;5018678;28;20249;-66
2022/12/04 10:24:35;;;;;;;15.53;11.70;;;;;;;1.64;100.00;99951.75;5015750;28;20202;-64
2022/12/04 10:27:11;;;;;;;19.60;13.13;;;;;;;1.74;100.00;99948.16;5012815;28;20282;-64
2022/12/04 10:29:40;;;;;;;16.10;11.13;;;;;;;1.68;100.00;99950.00;5009939;28;20274;-64
2022/12/04 10:32:27;;;;;;;15.67;12.00;;;;;;;1.56;100.00;99943.47;5014959;28;20234;-64
2022/12/04 10:34:57;;;;;;;16.13;11.80;;;;;;;1.73;100.00;99943.94;5012688;28;20179;-65
2022/12/04 10:37:23;;;;;;;15.73;11.33;;;;;;;1.61;100.00;99939.97;4994681;28;20171;-65
2022/12/04 10:40:00;;;;;;;16.47;12.03;;;;;;;1.63;100.00;99934.88;5030139;28;20228;-64
2022/12/04 10:42:31;;;;;;;17.87;12.20;;;;;;;1.68;100.00;99922.94;5000693;28;20754;-66
2022/12/04 10:44:57;;;;;;;16.97;11.83;;;;;;;1.62;100.00;99923.06;5009109;28;20191;-65
2022/12/04 10:47:23;;;;;;;18.03;11.67;;;;;;;1.87;100.00;99920.84;5023596;28;20178;-64
2022/12/04 10:49:58;;;;;;;16.27;11.13;;;;;;;1.90;100.00;99919.94;5026806;28;20178;-65
2022/12/04 10:52:23;;;;;;;17.90;12.87;;;;;;;1.91;100.00;99909.75;5005757;28;20222;-65
2022/12/04 10:55:00;;;;;;;17.20;14.10;;;;;;;1.97;100.00;99913.03;5028797;28;20496;-65
2022/12/04 10:57:41;;;;;;;16.43;12.73;;;;;;;1.96;100.00;99917.28;5020285;28;20184;-64
2022/12/04 11:00:26;;;;;;;17.53;12.60;;;;;;;2.13;100.00;99913.53;5010004;28;20181;-64
2022/12/04 11:02:55;;;;;;;16.87;13.13;;;;;;;2.08;100.00;99900.94;4999756;28;20206;-64
2022/12/04 11:05:59;;;;;;;16.40;11.83;;;;;;;1.98;100.00;99904.56;5029497;28;20196;-64
2022/12/04 11:08:37;;;;;;;17.40;12.67;;;;;;;2.06;100.00;99892.50;4924957;29;20321;-65
2022/12/04 11:11:07;;;;;;;17.43;11.60;;;;;;;2.00;100.00;99888.44;4939589;28;20275;-64
2022/12/04 11:13:33;;;;;;;18.10;13.37;;;;;;;1.93;100.00;99886.88;4934067;29;20201;-65
2022/12/04 11:15:58;;;;;;;16.53;11.73;;;;;;;2.07;100.00;99886.56;4933948;29;20185;-64
2022/12/04 11:18:30;;;;;;;15.17;10.57;;;;;;;2.04;100.00;99882.41;4933762;29;20249;-64
2022/12/04 11:21:02;;;;;;;14.93;10.33;;;;;;;1.99;100.00;99884.22;4915159;28;20277;-65
2022/12/04 11:23:50;;;;;;;15.07;11.33;;;;;;;1.90;100.00;99885.25;4942058;29;20392;-65
2022/12/04 11:26:36;;;;;;;19.87;13.63;;;;;;;1.89;100.00;99881.03;4932855;29;20201;-66
2022/12/04 11:29:04;;;;;;;15.17;10.60;;;;;;;1.88;100.00;99881.09;4927423;29;20190;-65
2022/12/04 11:31:31;;;;;;;14.20;10.60;;;;;;;1.88;100.00;99865.88;4936133;28;20241;-65
2022/12/04 11:34:02;;;;;;;15.47;11.53;;;;;;;1.93;100.00;99871.66;4947778;28;20302;-65
2022/12/04 11:36:36;;;;;;;17.23;12.47;;;;;;;1.89;100.00;99863.28;4949610;29;20217;-66
2022/12/04 11:39:23;;;;;;;18.30;11.77;;;;;;;2.02;100.00;99868.09;4925925;29;20326;-67
2022/12/04 11:41:59;;;;;;;15.60;11.53;;;;;;;2.09;100.00;99870.44;4933475;28;20228;-65